createdAt,value
2019-05-29T00:00:38.520Z,4.55
2019-05-29T00:03:08.150Z,6.10
2019-05-29T00:05:36.399Z,5.90
2019-05-29T00:08:06.371Z,5.22
2019-05-29T00:10:33.676Z,5.03
2019-05-29T00:13:02.158Z,6.72
2019-05-29T00:15:30.949Z,4.75
2019-05-29T00:17:59.423Z,5.70
2019-05-29T00:20:28.186Z,5.28
2019-05-29T00:22:56.821Z,10.08
2019-05-29T00:25:26.206Z,8.80
2019-05-29T00:27:54.679Z,5.25
2019-05-29T00:30:23.185Z,5.97
2019-05-29T00:32:51.631Z,7.17
2019-05-29T00:35:20.167Z,6.50
2019-05-29T00:37:48.714Z,8.03
2019-05-29T00:40:17.200Z,5.40
2019-05-29T00:42:45.597Z,6.05
2019-05-29T00:45:14.076Z,11.15
2019-05-29T00:47:42.787Z,7.87
2019-05-29T00:50:12.295Z,7.58
2019-05-29T00:52:39.704Z,11.45
2019-05-29T00:55:08.713Z,6.53
2019-05-29T00:57:36.681Z,6.42
2019-05-29T01:00:05.178Z,8.73
2019-05-29T01:02:33.890Z,5.67
2019-05-29T01:05:02.347Z,5.90
2019-05-29T01:07:31.411Z,5.12
2019-05-29T01:09:59.881Z,5.92
2019-05-29T01:12:28.366Z,8.15
2019-05-29T01:14:56.855Z,6.92
2019-05-29T01:17:28.271Z,5.22
2019-05-29T01:19:56.791Z,9.50
2019-05-29T01:22:25.335Z,7.00
2019-05-29T01:24:53.764Z,7.15
2019-05-29T01:27:23.107Z,7.60
2019-05-29T01:29:50.696Z,7.20
2019-05-29T01:32:19.561Z,5.95
2019-05-29T01:34:47.581Z,7.17
2019-05-29T01:37:16.149Z,6.72
2019-05-29T01:39:44.817Z,7.00
2019-05-29T01:42:13.337Z,6.28
2019-05-29T01:44:41.808Z,9.15
2019-05-29T01:47:10.303Z,7.78
2019-05-29T01:49:39.042Z,7.05
2019-05-29T01:52:07.549Z,10.82
2019-05-29T01:54:36.034Z,6.83
2019-05-29T01:57:04.508Z,9.00
2019-05-29T01:59:32.991Z,7.25
2019-05-29T02:02:01.862Z,9.50
2019-05-29T02:04:30.233Z,13.63
2019-05-29T02:06:58.705Z,5.75
2019-05-29T02:09:28.313Z,7.78
2019-05-29T02:11:55.732Z,6.58
2019-05-29T02:14:24.880Z,6.83
2019-05-29T02:16:52.823Z,6.87
2019-05-29T02:19:21.871Z,8.00
2019-05-29T02:21:49.787Z,11.53
2019-05-29T02:24:19.029Z,8.40
2019-05-29T02:26:46.961Z,7.90
2019-05-29T02:29:16.389Z,8.20
2019-05-29T02:31:43.926Z,7.35
2019-05-29T02:34:12.340Z,5.75
2019-05-29T02:36:40.836Z,7.08
2019-05-29T02:39:09.278Z,7.40
2019-05-29T02:41:37.777Z,8.48
2019-05-29T02:44:06.239Z,9.75
2019-05-29T02:46:34.759Z,9.43
2019-05-29T02:49:03.212Z,8.00
2019-05-29T02:51:32.417Z,8.85
2019-05-29T02:54:01.138Z,9.25
2019-05-29T02:56:31.135Z,9.15
2019-05-29T02:58:58.137Z,9.38
2019-05-29T03:01:27.806Z,10.88
2019-05-29T03:03:54.997Z,8.83
2019-05-29T03:06:24.082Z,8.50
2019-05-29T03:08:52.275Z,10.28
2019-05-29T03:11:22.886Z,9.85
2019-05-29T03:13:49.425Z,10.13
2019-05-29T03:16:17.916Z,12.78
2019-05-29T03:18:46.396Z,11.95
2019-05-29T03:21:14.872Z,10.38
2019-05-29T03:23:43.342Z,9.70
2019-05-29T03:26:11.843Z,12.40
2019-05-29T03:28:40.303Z,14.13
2019-05-29T03:31:08.796Z,12.37
2019-05-29T03:33:45.289Z,12.55
2019-05-29T03:36:06.715Z,13.53
2019-05-29T03:38:35.274Z,10.20
2019-05-29T03:41:03.674Z,11.10
2019-05-29T03:43:33.605Z,12.60
2019-05-29T03:46:01.368Z,13.25
2019-05-29T03:48:30.112Z,14.65
2019-05-29T03:50:58.290Z,11.40
2019-05-29T03:53:27.187Z,10.75
2019-05-29T03:55:55.557Z,12.03
2019-05-29T03:58:24.268Z,11.95
2019-05-29T04:00:52.744Z,11.65
2019-05-29T04:03:21.188Z,10.68
2019-05-29T04:05:49.654Z,13.00
2019-05-29T04:08:18.117Z,13.60
2019-05-29T04:10:46.928Z,11.00
2019-05-29T04:13:15.401Z,10.85
2019-05-29T04:15:43.883Z,12.13
2019-05-29T04:18:12.645Z,12.20
2019-05-29T04:20:41.139Z,10.25
2019-05-29T04:23:09.698Z,11.30
2019-05-29T04:25:42.563Z,12.25
2019-05-29T04:28:07.584Z,13.53
2019-05-29T04:30:36.570Z,11.33
2019-05-29T04:33:04.568Z,11.22
2019-05-29T04:35:34.646Z,12.13
2019-05-29T04:38:01.839Z,12.73
2019-05-29T04:40:34.795Z,10.70
2019-05-29T04:43:01.818Z,11.78
2019-05-29T04:45:30.867Z,11.90
2019-05-29T04:47:59.081Z,12.43
2019-05-29T04:50:29.012Z,12.47
2019-05-29T04:52:56.244Z,10.95
2019-05-29T04:55:24.718Z,14.28
2019-05-29T04:57:54.288Z,12.20
2019-05-29T05:00:22.917Z,13.05
2019-05-29T05:02:51.586Z,14.00
2019-05-29T05:05:20.318Z,12.98
2019-05-29T05:07:49.882Z,14.15
2019-05-29T05:10:27.435Z,14.33
2019-05-29T05:12:55.884Z,10.58
2019-05-29T05:15:24.338Z,10.28
2019-05-29T05:17:52.853Z,12.90
2019-05-29T05:20:21.298Z,11.55
2019-05-29T05:22:50.717Z,10.32
2019-05-29T05:25:26.353Z,10.75
2019-05-29T05:28:08.875Z,12.25
2019-05-29T05:30:38.431Z,10.85
2019-05-29T05:33:05.831Z,10.45
2019-05-29T05:35:34.651Z,10.08
2019-05-29T05:38:02.822Z,11.97
2019-05-29T05:40:31.342Z,9.83
2019-05-29T05:42:59.785Z,12.73
2019-05-29T05:45:28.250Z,9.70
2019-05-29T05:47:57.993Z,13.60
2019-05-29T05:50:25.242Z,10.53
2019-05-29T05:52:53.821Z,9.73
2019-05-29T05:55:22.567Z,9.48
2019-05-29T05:57:51.071Z,8.40
2019-05-29T06:00:28.566Z,10.15
2019-05-29T06:02:57.043Z,8.38
2019-05-29T06:05:25.510Z,10.60
2019-05-29T06:07:53.971Z,8.98
2019-05-29T06:10:22.478Z,11.83
2019-05-29T06:12:50.967Z,9.70
2019-05-29T06:15:19.414Z,10.85
2019-05-29T06:18:10.097Z,9.60
2019-05-29T06:20:16.878Z,9.03
2019-05-29T06:22:45.281Z,9.20
2019-05-29T06:25:13.749Z,8.03
2019-05-29T06:27:43.356Z,8.23
2019-05-29T06:30:11.420Z,8.93
2019-05-29T06:32:39.914Z,9.38
2019-05-29T06:35:08.341Z,12.90
2019-05-29T06:37:37.571Z,9.98
2019-05-29T06:40:05.992Z,8.35
2019-05-29T06:42:35.709Z,8.38
2019-05-29T06:45:03.810Z,8.95
2019-05-29T06:47:31.762Z,12.98
2019-05-29T06:50:00.245Z,9.75
2019-05-29T06:52:28.790Z,11.08
2019-05-29T06:54:57.209Z,8.83
2019-05-29T06:57:26.043Z,8.20
2019-05-29T06:59:54.163Z,8.75
2019-05-29T07:02:22.624Z,8.95
2019-05-29T07:04:51.285Z,9.58
2019-05-29T07:07:19.748Z,7.03
2019-05-29T07:09:48.234Z,8.35
2019-05-29T07:12:16.967Z,7.65
2019-05-29T07:14:46.566Z,7.05
2019-05-29T07:17:13.872Z,6.37
2019-05-29T07:19:57.424Z,9.08
2019-05-29T07:22:10.837Z,4.95
2019-05-29T07:24:41.169Z,4.97
2019-05-29T07:27:13.376Z,7.10
2019-05-29T07:29:37.219Z,7.30
2019-05-29T07:32:06.400Z,4.70
2019-05-29T07:34:49.652Z,4.83
2019-05-29T07:37:03.283Z,6.78
2019-05-29T07:39:32.817Z,7.37
2019-05-29T07:42:01.258Z,7.83
2019-05-29T07:44:29.756Z,4.00
2019-05-29T07:46:58.512Z,5.87
2019-05-29T07:49:38.591Z,5.40
2019-05-29T07:51:55.539Z,4.33
2019-05-29T07:54:24.005Z,5.40
2019-05-29T07:56:52.541Z,5.90
2019-05-29T07:59:20.959Z,6.08
2019-05-29T08:01:49.722Z,2.52
2019-05-29T08:04:18.134Z,3.95
2019-05-29T08:06:51.084Z,5.37
2019-05-29T08:09:15.085Z,3.72
2019-05-29T08:11:43.616Z,5.90
2019-05-29T08:14:12.345Z,5.22
2019-05-29T08:16:41.935Z,3.65
2019-05-29T08:19:09.603Z,4.28
2019-05-29T08:21:38.100Z,5.17
2019-05-29T08:24:07.089Z,2.05
2019-05-29T08:26:35.574Z,19.37
2019-05-29T08:29:04.086Z,10.30
2019-05-29T08:31:32.513Z,3.80
2019-05-29T08:36:40.798Z,6.62
2019-05-29T08:39:08.953Z,4.87
2019-05-29T08:41:37.421Z,6.22
2019-05-29T08:44:05.996Z,4.10
2019-05-29T08:46:34.401Z,4.08
2019-05-29T08:49:02.940Z,3.52
2019-05-29T08:51:31.379Z,6.37
2019-05-29T08:53:59.853Z,2.67
2019-05-29T08:56:28.317Z,3.80
2019-05-29T08:58:57.007Z,3.22
2019-05-29T09:01:25.520Z,6.15
2019-05-29T09:03:53.986Z,6.22
2019-05-29T09:06:22.425Z,4.35
2019-05-29T09:08:54.096Z,4.67
2019-05-29T09:11:19.952Z,5.40
2019-05-29T09:13:48.388Z,4.15
2019-05-29T09:16:16.862Z,6.50
2019-05-29T09:18:45.421Z,4.55
2019-05-29T09:21:14.582Z,6.97
2019-05-29T09:23:42.300Z,3.92
2019-05-29T09:26:15.904Z,6.37
2019-05-29T09:28:39.662Z,6.58
2019-05-29T09:31:08.458Z,3.10
2019-05-29T09:33:36.963Z,2.87
2019-05-29T09:36:05.479Z,4.33
2019-05-29T09:38:33.923Z,2.87
2019-05-29T09:41:02.402Z,3.37
2019-05-29T09:43:31.078Z,5.00
2019-05-29T09:46:02.208Z,4.22
2019-05-29T09:48:28.868Z,5.40
2019-05-29T09:50:56.376Z,3.42
2019-05-29T09:53:24.799Z,2.90
2019-05-29T09:55:54.198Z,3.33
2019-05-29T09:58:22.219Z,4.05
2019-05-29T10:01:09.849Z,6.55
2019-05-29T10:03:19.120Z,2.98
2019-05-29T10:05:47.601Z,4.55
2019-05-29T10:08:17.089Z,4.22
2019-05-29T10:10:44.871Z,3.80
2019-05-29T10:13:13.250Z,3.45
2019-05-29T10:15:41.720Z,4.17
2019-05-29T10:18:30.458Z,3.05
2019-05-29T10:20:39.416Z,3.80
2019-05-29T10:23:07.892Z,2.20
2019-05-29T10:25:36.451Z,5.87
2019-05-29T10:28:06.066Z,3.87
2019-05-29T10:30:33.625Z,3.55
2019-05-29T10:33:02.126Z,3.52
2019-05-29T10:35:30.578Z,5.03
2019-05-29T10:37:59.007Z,3.22
2019-05-29T10:40:27.470Z,3.87
2019-05-29T10:42:56.229Z,4.83
2019-05-29T10:45:24.738Z,2.35
2019-05-29T10:47:54.123Z,5.90
2019-05-29T10:50:21.716Z,6.08
2019-05-29T10:52:50.196Z,3.12
2019-05-29T10:55:19.197Z,7.40
2019-05-29T10:57:48.969Z,3.33
2019-05-29T11:00:16.197Z,4.22
2019-05-29T11:02:46.000Z,8.68
2019-05-29T11:05:13.086Z,3.90
2019-05-29T11:07:43.634Z,7.00
2019-05-29T11:10:13.731Z,4.37
2019-05-29T11:12:41.616Z,5.80
2019-05-29T11:15:21.216Z,5.78
2019-05-29T11:17:48.903Z,4.12
2019-05-29T11:20:17.150Z,4.33
2019-05-29T11:22:45.654Z,6.33
2019-05-29T11:25:26.673Z,6.97
2019-05-29T11:27:53.228Z,9.27
2019-05-29T11:30:22.448Z,4.92
2019-05-29T11:32:55.204Z,5.53
2019-05-29T11:35:21.483Z,8.10
2019-05-29T11:37:50.427Z,6.20
2019-05-29T11:40:18.432Z,6.92
2019-05-29T11:42:47.197Z,8.23
2019-05-29T11:45:15.719Z,7.47
2019-05-29T11:47:44.184Z,6.70
2019-05-29T11:50:19.068Z,7.25
2019-05-29T11:52:43.288Z,10.28
2019-05-29T11:55:11.467Z,8.13
2019-05-29T11:57:40.960Z,7.15
2019-05-29T12:00:19.885Z,7.37
2019-05-29T12:02:38.731Z,6.70
2019-05-29T12:05:07.313Z,5.37
2019-05-29T12:07:36.037Z,9.00
2019-05-29T12:10:06.121Z,6.20
2019-05-29T12:12:35.120Z,8.13
2019-05-29T12:15:11.912Z,7.10
2019-05-29T12:17:32.713Z,8.20
2019-05-29T12:20:03.657Z,8.53
2019-05-29T12:22:29.667Z,7.37
2019-05-29T12:24:58.653Z,7.20
2019-05-29T12:27:27.106Z,5.50
2019-05-29T12:29:56.586Z,5.75
2019-05-29T12:32:24.348Z,11.33
2019-05-29T12:34:55.125Z,8.60
2019-05-29T12:37:22.409Z,8.68
2019-05-29T12:39:50.921Z,7.22
2019-05-29T12:42:19.358Z,8.28
2019-05-29T12:44:47.834Z,6.55
2019-05-29T12:47:16.349Z,4.80
2019-05-29T12:49:44.819Z,5.78
2019-05-29T12:52:13.287Z,6.45
2019-05-29T12:54:42.737Z,6.22
2019-05-29T12:57:11.167Z,7.50
2019-05-29T12:59:42.514Z,4.72
2019-05-29T13:02:11.493Z,7.28
2019-05-29T13:05:13.847Z,8.13
2019-05-29T13:07:28.863Z,7.25
2019-05-29T13:09:58.792Z,6.80
2019-05-29T13:12:25.825Z,4.80
2019-05-29T13:14:54.465Z,5.58
2019-05-29T13:17:23.804Z,6.90
2019-05-29T13:19:52.444Z,9.10
2019-05-29T13:22:21.022Z,7.75
2019-05-29T13:24:52.569Z,5.25
2019-05-29T13:27:19.070Z,6.20
2019-05-29T13:29:48.526Z,6.58
2019-05-29T13:32:17.043Z,5.65
2019-05-29T13:34:46.214Z,8.90
2019-05-29T13:37:14.700Z,4.20
2019-05-29T13:39:43.207Z,7.15
2019-05-29T13:42:12.243Z,9.13
2019-05-29T13:44:40.136Z,6.42
2019-05-29T13:47:08.687Z,7.22
2019-05-29T13:49:37.108Z,7.47
2019-05-29T13:52:10.018Z,7.35
2019-05-29T13:54:34.056Z,9.08
2019-05-29T13:57:04.434Z,5.90
2019-05-29T13:59:31.011Z,5.67
2019-05-29T14:02:00.266Z,6.70
2019-05-29T14:04:28.248Z,6.50
2019-05-29T14:06:58.578Z,9.40
2019-05-29T14:09:26.144Z,7.92
2019-05-29T14:11:58.855Z,7.57
2019-05-29T14:14:25.881Z,7.10
2019-05-29T14:16:54.353Z,6.10
2019-05-29T14:19:23.098Z,7.33
2019-05-29T14:21:53.845Z,9.53
2019-05-29T14:24:29.141Z,6.53
2019-05-29T14:26:51.542Z,7.33
2019-05-29T14:29:23.020Z,9.03
2019-05-29T14:34:21.828Z,8.05
2019-05-29T14:36:50.392Z,9.23
2019-05-29T14:39:19.041Z,8.03
2019-05-29T14:41:48.487Z,8.83
2019-05-29T14:44:17.335Z,9.08
2019-05-29T14:46:51.543Z,10.75
2019-05-29T14:49:22.034Z,11.63
2019-05-29T14:51:54.186Z,7.53
2019-05-29T14:54:40.247Z,6.83
2019-05-29T14:56:54.438Z,8.53
2019-05-29T14:59:22.921Z,10.68
2019-05-29T15:01:52.418Z,8.70
2019-05-29T15:04:21.035Z,8.15
2019-05-29T15:06:49.475Z,10.53
2019-05-29T15:09:17.955Z,9.55
2019-05-29T15:11:46.426Z,10.08
2019-05-29T15:14:14.921Z,11.40
2019-05-29T15:16:43.904Z,7.37
2019-05-29T15:19:13.232Z,10.43
2019-05-29T15:21:40.869Z,8.55
2019-05-29T15:24:09.536Z,8.00
2019-05-29T15:26:37.820Z,8.65
2019-05-29T15:29:06.326Z,8.78
2019-05-29T15:31:36.005Z,8.98
2019-05-29T15:34:03.372Z,8.63
2019-05-29T15:36:34.820Z,6.33
2019-05-29T15:39:03.331Z,9.00
2019-05-29T15:41:31.851Z,6.08
2019-05-29T15:44:00.299Z,6.50
2019-05-29T15:46:29.035Z,8.35
2019-05-29T15:48:57.480Z,7.80
2019-05-29T15:51:26.213Z,6.83
2019-05-29T15:53:54.706Z,7.87
2019-05-29T15:56:27.879Z,11.57
2019-05-29T15:58:51.674Z,6.67
2019-05-29T16:01:20.402Z,6.37
2019-05-29T16:03:48.834Z,8.80
2019-05-29T16:06:18.030Z,6.65
2019-05-29T16:08:45.827Z,8.18
2019-05-29T16:11:16.790Z,7.00
2019-05-29T16:13:44.919Z,7.17
2019-05-29T16:16:15.287Z,6.20
2019-05-29T16:18:42.588Z,7.08
2019-05-29T16:21:12.452Z,10.15
2019-05-29T16:23:39.558Z,6.75
2019-05-29T16:26:08.012Z,5.90
2019-05-29T16:28:36.490Z,7.85
2019-05-29T16:31:04.969Z,6.05
2019-05-29T16:33:33.751Z,9.75
2019-05-29T16:36:02.155Z,7.42
2019-05-29T16:38:30.638Z,7.08
2019-05-29T16:40:59.124Z,5.12
2019-05-29T16:43:27.610Z,8.43
2019-05-29T16:45:56.107Z,9.43
2019-05-29T16:48:24.552Z,6.35
2019-05-29T16:50:53.046Z,6.90
2019-05-29T16:53:23.103Z,6.42
2019-05-29T16:55:53.753Z,4.92
2019-05-29T16:58:19.783Z,4.00
2019-05-29T17:00:47.334Z,7.70
2019-05-29T17:03:17.690Z,6.97
2019-05-29T17:05:45.745Z,5.10
2019-05-29T17:08:15.954Z,6.85
2019-05-29T17:10:43.310Z,8.58
2019-05-29T17:13:11.888Z,6.50
2019-05-29T17:15:40.276Z,7.08
2019-05-29T17:18:08.755Z,9.63
2019-05-29T17:20:38.007Z,6.28
2019-05-29T17:23:06.649Z,6.40
2019-05-29T17:25:35.023Z,8.30
2019-05-29T17:28:03.509Z,7.15
2019-05-29T17:30:31.987Z,7.65
2019-05-29T17:33:00.451Z,4.83
2019-05-29T17:35:28.858Z,4.62
2019-05-29T17:37:58.347Z,5.17
2019-05-29T17:40:26.849Z,4.58
2019-05-29T17:42:56.335Z,5.95
2019-05-29T17:45:26.128Z,6.67
2019-05-29T17:47:53.293Z,7.67
2019-05-29T17:50:23.254Z,6.65
2019-05-29T17:52:51.127Z,5.25
2019-05-29T17:55:21.769Z,9.53
2019-05-29T17:57:48.341Z,6.60
2019-05-29T18:00:17.981Z,5.72
2019-05-29T18:02:51.795Z,5.85
2019-05-29T18:05:18.451Z,9.13
2019-05-29T18:07:46.268Z,6.90
2019-05-29T18:10:18.829Z,10.13
2019-05-29T18:12:44.756Z,6.75
2019-05-29T18:15:13.300Z,6.67
2019-05-29T18:17:44.433Z,5.37
2019-05-29T18:20:14.654Z,7.93
2019-05-29T18:22:40.724Z,8.38
2019-05-29T18:25:09.301Z,6.05
2019-05-29T18:27:37.944Z,9.25
2019-05-29T18:30:06.484Z,8.05
2019-05-29T18:32:35.191Z,7.50
2019-05-29T18:35:03.849Z,7.37
2019-05-29T18:37:33.294Z,7.05
2019-05-29T18:40:01.764Z,7.90
2019-05-29T18:42:30.242Z,8.15
2019-05-29T18:44:58.733Z,8.90
2019-05-29T18:47:27.301Z,5.58
2019-05-29T18:49:55.690Z,5.28
2019-05-29T18:52:25.595Z,7.17
2019-05-29T18:54:53.688Z,6.30
2019-05-29T18:57:22.901Z,7.22
2019-05-29T18:59:50.625Z,7.30
2019-05-29T19:02:19.663Z,10.53
2019-05-29T19:04:48.092Z,8.63
2019-05-29T19:07:16.585Z,7.45
2019-05-29T19:09:45.779Z,10.55
2019-05-29T19:12:14.258Z,5.87
2019-05-29T19:14:42.764Z,8.60
2019-05-29T19:17:11.484Z,6.20
2019-05-29T19:19:40.032Z,7.92
2019-05-29T19:22:08.766Z,10.65
2019-05-29T19:24:37.340Z,10.50
2019-05-29T19:27:05.743Z,9.10
2019-05-29T19:29:34.208Z,9.03
2019-05-29T19:32:02.758Z,9.75
2019-05-29T19:34:31.722Z,10.30
2019-05-29T19:37:00.210Z,8.05
2019-05-29T19:39:30.271Z,10.90
2019-05-29T19:41:57.375Z,10.05
2019-05-29T19:44:35.022Z,8.05
2019-05-29T19:47:03.448Z,9.35
2019-05-29T19:49:40.004Z,7.70
2019-05-29T19:52:19.084Z,11.35
2019-05-29T19:54:50.294Z,14.93
2019-05-29T19:57:18.773Z,7.90
2019-05-29T19:59:47.986Z,10.55
2019-05-29T20:02:16.448Z,9.20
2019-05-29T20:04:45.224Z,7.40
2019-05-29T20:07:13.962Z,6.58
2019-05-29T20:09:42.466Z,9.23
2019-05-29T20:12:10.953Z,6.62
2019-05-29T20:14:39.418Z,6.83
2019-05-29T20:17:07.913Z,9.93
2019-05-29T20:19:39.605Z,9.78
2019-05-29T20:22:04.895Z,9.13
2019-05-29T20:24:33.349Z,6.70
2019-05-29T20:27:02.139Z,7.53
2019-05-29T20:29:30.627Z,7.65
2019-05-29T20:31:59.118Z,7.00
2019-05-29T20:34:27.592Z,9.28
2019-05-29T20:36:56.386Z,7.67
2019-05-29T20:39:25.886Z,7.20
2019-05-29T20:41:54.556Z,9.88
2019-05-29T20:44:22.962Z,6.80
2019-05-29T20:46:51.376Z,7.65
2019-05-29T20:49:20.381Z,7.58
2019-05-29T20:51:49.498Z,9.30
2019-05-29T20:54:19.957Z,9.58
2019-05-29T20:56:49.145Z,8.53
2019-05-29T20:59:17.626Z,11.30
2019-05-29T21:01:47.620Z,8.28
2019-05-29T21:04:15.891Z,8.75
2019-05-29T21:06:44.821Z,10.03
2019-05-29T21:09:13.255Z,10.20
2019-05-29T21:11:41.807Z,9.68
2019-05-29T21:14:10.276Z,10.58
2019-05-29T21:16:39.791Z,11.08
2019-05-29T21:19:08.201Z,10.53
2019-05-29T21:21:36.693Z,10.85
2019-05-29T21:24:06.190Z,20.40
2019-05-29T21:26:35.027Z,26.42
2019-05-29T21:29:03.463Z,24.98
2019-05-29T21:31:32.238Z,24.93
2019-05-29T21:34:00.730Z,22.50
2019-05-29T21:36:29.142Z,14.63
2019-05-29T21:38:57.611Z,16.40
2019-05-29T21:41:26.162Z,13.03
2019-05-29T21:43:54.823Z,12.07
2019-05-29T21:46:23.239Z,14.93
2019-05-29T21:48:51.734Z,12.95
2019-05-29T21:51:20.260Z,12.03
2019-05-29T21:53:49.534Z,11.35
2019-05-29T21:56:18.285Z,9.63
2019-05-29T21:59:01.175Z,10.93
2019-05-29T22:01:15.264Z,11.12
2019-05-29T22:03:44.478Z,21.30
2019-05-29T22:06:12.196Z,21.57
2019-05-29T22:08:40.861Z,22.42
2019-05-29T22:11:10.243Z,25.68
2019-05-29T22:13:38.683Z,28.60
2019-05-29T22:16:07.170Z,29.80
2019-05-29T22:18:35.732Z,21.52
2019-05-29T22:21:05.158Z,16.07
2019-05-29T22:23:33.629Z,15.05
2019-05-29T22:26:02.140Z,12.28
2019-05-29T22:28:30.596Z,12.10
2019-05-29T22:30:59.527Z,13.03
2019-05-29T22:33:27.851Z,10.72
2019-05-29T22:35:57.423Z,12.05
2019-05-29T22:38:26.042Z,11.93
2019-05-29T22:41:10.877Z,10.10
2019-05-29T22:43:41.668Z,9.70
2019-05-29T22:46:10.246Z,10.13
2019-05-29T22:48:44.608Z,16.73
2019-05-29T22:51:14.541Z,13.90
2019-05-29T22:53:43.970Z,9.98
2019-05-29T22:56:17.393Z,10.35
2019-05-29T22:58:46.883Z,10.40
2019-05-29T23:01:19.338Z,10.53
2019-05-29T23:03:54.120Z,11.35
2019-05-29T23:06:21.940Z,11.34
2019-05-29T23:08:54.158Z,11.25
2019-05-29T23:13:52.166Z,10.53
2019-05-29T23:16:19.438Z,11.08
2019-05-29T23:18:47.902Z,10.90
2019-05-29T23:21:16.399Z,16.65
2019-05-29T23:23:44.881Z,15.23
2019-05-29T23:26:13.887Z,13.32
2019-05-29T23:28:42.340Z,12.80
2019-05-29T23:31:10.834Z,12.58
2019-05-29T23:33:40.335Z,13.15
2019-05-29T23:36:08.802Z,14.43
2019-05-29T23:38:37.336Z,11.93
2019-05-29T23:41:11.906Z,12.15
2019-05-29T23:43:40.433Z,11.12
2019-05-29T23:46:09.994Z,11.88
2019-05-29T23:48:38.784Z,14.07
2019-05-29T23:51:07.466Z,14.15
2019-05-29T23:53:37.912Z,11.53
2019-05-29T23:56:09.534Z,12.93
2019-05-29T23:58:38.094Z,12.05
